Ohyamamaru — JG5507 — position and weather

sailwx.info

Track history (hours):
 
Tides and Currents Weather Stations Pressure Air Temp Water Temp Dewpoint Dewpoint Depression Visibility Wind Speed Wind Dir Waves Ship Positions

Ohyamamaru

Last reported at 2017-Mar-27 00:33 UTC. Time now 2017-Mar-27 00:40 UTC.
Position N 35°38' E 139°45'.

Length 36 m; draft 4.4 m.

Type: Tug. MMSI: 431001114.

Date/timePositionNaut miles runAvg speedWind from/ knotsBaromVisibWave heightAir tempDewpointWater temp
2017-Mar-27 00:33N 35°38' E 139°45'2 2.0
2017-Mar-26 23:33N 35°36' E 139°47'1 0.7
2017-Mar-26 22:33N 35°36' E 139°46'2 2.4
2017-Mar-26 21:33N 35°34' E 139°48'3 2.9
2017-Mar-26 20:33N 35°37' E 139°46'2 1.6
2017-Mar-26 19:33N 35°38' E 139°45'0 0.0
2017-Mar-26 18:33N 35°38' E 139°45'0 0.0
2017-Mar-26 17:33N 35°38' E 139°45'0 0.0
2017-Mar-26 16:33N 35°38' E 139°45'0 0.0
2017-Mar-26 15:33N 35°38' E 139°45'0 0.0
2017-Mar-26 14:33N 35°38' E 139°45'0 0.0
2017-Mar-26 13:34N 35°38' E 139°45'0 0.0
2017-Mar-26 12:33N 35°38' E 139°45'0 0.0
2017-Mar-26 11:33N 35°38' E 139°45'0 0.0
2017-Mar-26 10:33N 35°38' E 139°45'0 0.0
2017-Mar-26 09:33N 35°38' E 139°45'0 0.0
2017-Mar-26 08:33N 35°38' E 139°45'0 0.0
2017-Mar-26 07:33N 35°38' E 139°45'0 0.0
2017-Mar-26 06:33N 35°38' E 139°45'0 0.0
2017-Mar-26 05:33N 35°38' E 139°45'0 0.0
2017-Mar-26 04:33N 35°38' E 139°45'0 0.0
2017-Mar-26 03:33N 35°38' E 139°45'0 0.0
2017-Mar-26 02:32N 35°38' E 139°45'0 0.0
2017-Mar-26 01:33N 35°38' E 139°45'0 0.0
2017-Mar-26 00:33N 35°38' E 139°45'0 0.0
2017-Mar-25 23:33N 35°38' E 139°45'0 0.0
2017-Mar-25 22:33N 35°38' E 139°45'0 0.0
2017-Mar-25 21:33N 35°38' E 139°45'0 0.0
2017-Mar-25 20:33N 35°38' E 139°45'0 0.0
2017-Mar-25 19:33N 35°38' E 139°45'0 0.0
2017-Mar-25 18:33N 35°38' E 139°45'0 0.0
2017-Mar-25 17:33N 35°38' E 139°45'0 0.0
2017-Mar-25 16:34N 35°38' E 139°45'0 0.0
2017-Mar-25 15:33N 35°38' E 139°45'0 0.0
2017-Mar-25 14:33N 35°38' E 139°45'0 0.0
2017-Mar-25 13:33N 35°38' E 139°45'0 0.0
2017-Mar-25 12:33N 35°38' E 139°45'0 0.0
2017-Mar-25 11:33N 35°38' E 139°45'0 0.0
2017-Mar-25 10:33N 35°38' E 139°45'0 0.0
2017-Mar-25 09:33N 35°38' E 139°45'3 2.5
2017-Mar-25 08:33N 35°36' E 139°46'3 2.6
2017-Mar-25 07:33N 35°38' E 139°45'0 0.0
2017-Mar-25 06:33N 35°38' E 139°45'0 0.0
2017-Mar-25 05:33N 35°38' E 139°45'0 0.0
2017-Mar-25 04:33N 35°38' E 139°45'0 0.0
2017-Mar-25 03:33N 35°38' E 139°45'0 0.0
2017-Mar-25 02:33N 35°38' E 139°45'0 0.0
2017-Mar-25 01:33N 35°38' E 139°45'0 0.0
2017-Mar-25 00:33N 35°38' E 139°45'0 0.0
2017-Mar-24 23:33N 35°38' E 139°45'0 0.0
2017-Mar-24 22:33N 35°38' E 139°45'0 0.0
2017-Mar-24 21:32N 35°38' E 139°45'0 0.0
2017-Mar-24 20:34N 35°38' E 139°45'0 0.0
2017-Mar-24 19:33N 35°38' E 139°45'0 0.0
2017-Mar-24 18:33N 35°38' E 139°45'0 0.0
2017-Mar-24 17:33N 35°38' E 139°45'0 0.0
2017-Mar-24 16:33N 35°38' E 139°45'0 0.0
2017-Mar-24 15:33N 35°38' E 139°45'0 0.0
2017-Mar-24 14:33N 35°38' E 139°45'0 0.0
2017-Mar-24 13:33N 35°38' E 139°45'2 2.5
2017-Mar-24 12:33N 35°36' E 139°47'2 2.5
2017-Mar-24 11:33N 35°38' E 139°45'2 2.2
2017-Mar-24 10:33N 35°36' E 139°46'1 1.3
2017-Mar-24 09:33N 35°35' E 139°47'1 0.9
2017-Mar-24 08:33N 35°36' E 139°47'0 0.3
2017-Mar-24 07:33N 35°36' E 139°47'2 2.3
2017-Mar-24 06:33N 35°38' E 139°46'0 0.0
2017-Mar-24 05:32N 35°38' E 139°46'0 0.0
2017-Mar-24 04:33N 35°38' E 139°46'0 0.0
2017-Mar-24 03:33N 35°38' E 139°46'0 0.0
2017-Mar-24 02:33N 35°38' E 139°46'0 0.0
2017-Mar-24 01:33N 35°38' E 139°46'0 0.0
2017-Mar-24 00:33N 35°38' E 139°46'0 0.0
2017-Mar-23 23:33N 35°38' E 139°46'2 2.0
2017-Mar-23 22:33N 35°36' E 139°46'2 2.4
2017-Mar-23 21:33N 35°35' E 139°48'4 1.4
2017-Mar-23 18:31N 35°38' E 139°46'0 0.0
2017-Mar-23 11:32N 35°38' E 139°46'0 0.0
2017-Mar-23 10:19N 35°38' E 139°46'0 0.0
2017-Mar-23 09:19N 35°38' E 139°46'0 0.0
2017-Mar-23 08:31N 35°38' E 139°46'0 0.0
2017-Mar-23 07:33N 35°38' E 139°46'0 0.0
2017-Mar-23 06:33N 35°38' E 139°46'0 0.0
2017-Mar-23 05:32N 35°38' E 139°46'0 0.0
2017-Mar-23 04:32N 35°38' E 139°46'0 0.0
2017-Mar-23 03:32N 35°38' E 139°46'0 0.0
2017-Mar-23 02:32N 35°38' E 139°46'0 0.0
2017-Mar-23 01:33N 35°38' E 139°46'0 0.0
2017-Mar-23 00:33N 35°38' E 139°46'0 0.0
2017-Mar-22 23:31N 35°38' E 139°46'3 3.4
2017-Mar-22 22:33N 35°35' E 139°47'2 2.1
2017-Mar-22 21:32N 35°37' E 139°50'2 1.9
2017-Mar-22 20:33N 35°37' E 139°47'1 1.3
2017-Mar-22 19:33N 35°36' E 139°46'2 2.5
2017-Mar-22 18:33N 35°38' E 139°46'0 0.0
2017-Mar-22 17:34N 35°38' E 139°46'0 0.0
2017-Mar-22 16:33N 35°38' E 139°46'0 0.0
2017-Mar-22 15:33N 35°38' E 139°46'0 0.0
2017-Mar-22 14:33N 35°38' E 139°46'0 0.0
2017-Mar-22 13:30N 35°38' E 139°46'0 0.0
2017-Mar-22 12:33N 35°38' E 139°46'0 0.0
2017-Mar-22 11:32N 35°38' E 139°46'0 0.0
2017-Mar-22 10:31N 35°38' E 139°46'0 0.0
2017-Mar-22 09:33N 35°38' E 139°46'0 0.0
2017-Mar-22 08:32N 35°38' E 139°46'0 0.0
2017-Mar-22 07:30N 35°38' E 139°46'0 0.0
2017-Mar-22 06:11N 35°38' E 139°46'0 0.0
2017-Mar-22 05:30N 35°38' E 139°46'0 0.0
2017-Mar-22 04:23N 35°38' E 139°46'0 0.0
2017-Mar-22 03:33N 35°38' E 139°46'2 2.2
2017-Mar-22 02:32N 35°37' E 139°48'0 0.3
2017-Mar-22 01:33N 35°37' E 139°48'0 0.4
2017-Mar-22 00:33N 35°37' E 139°47'3 2.6
2017-Mar-21 23:33N 35°35' E 139°48'4 4.3
2017-Mar-21 22:33N 35°38' E 139°45'0 0.0
2017-Mar-21 21:33N 35°38' E 139°45'0 0.0
2017-Mar-21 20:33N 35°38' E 139°45'0 0.0
2017-Mar-21 19:33N 35°38' E 139°45'0 0.0
2017-Mar-21 18:33N 35°38' E 139°45'0 0.0
2017-Mar-21 17:33N 35°38' E 139°45'0 0.0
2017-Mar-21 16:33N 35°38' E 139°45'0 0.0
2017-Mar-21 15:33N 35°38' E 139°45'0 0.0
2017-Mar-21 14:33N 35°38' E 139°45'0 0.0
2017-Mar-21 13:34N 35°38' E 139°45'0 0.0
2017-Mar-21 12:33N 35°38' E 139°45'0 0.0
2017-Mar-21 11:33N 35°38' E 139°45'3 2.5
2017-Mar-21 10:33N 35°36' E 139°47'1 0.8
2017-Mar-21 09:33N 35°37' E 139°47'3 2.9
2017-Mar-21 08:32N 35°34' E 139°49'4 3.7
2017-Mar-21 07:33N 35°37' E 139°46'2 1.6
2017-Mar-21 06:33N 35°38' E 139°45'0 0.0
2017-Mar-21 05:33N 35°38' E 139°45'0 0.0
2017-Mar-21 04:33N 35°38' E 139°45'0 0.0
2017-Mar-21 03:33N 35°38' E 139°45'0 0.0
2017-Mar-21 02:33N 35°38' E 139°45'0 0.0
2017-Mar-21 01:33N 35°38' E 139°45'0 0.0
2017-Mar-21 00:33N 35°38' E 139°45'0 0.0
2017-Mar-20 23:33N 35°38' E 139°45'3 2.6
2017-Mar-20 22:33N 35°36' E 139°47'2 2.1
2017-Mar-20 21:33N 35°38' E 139°46'1 0.5
2017-Mar-20 20:33N 35°38' E 139°45'0 0.0
2017-Mar-20 19:33N 35°38' E 139°45'0 0.0
2017-Mar-20 18:33N 35°38' E 139°45'0 0.0
2017-Mar-20 17:33N 35°38' E 139°45'0 0.0
2017-Mar-20 16:33N 35°38' E 139°45'0 0.0
2017-Mar-20 15:33N 35°38' E 139°45'0 0.0
2017-Mar-20 14:33N 35°38' E 139°45'0 0.0
2017-Mar-20 13:33N 35°38' E 139°45'0 0.0
2017-Mar-20 12:33N 35°38' E 139°45'0 0.0
2017-Mar-20 11:33N 35°38' E 139°45'0 0.0
2017-Mar-20 10:33N 35°38' E 139°45'2 1.9
2017-Mar-20 09:33N 35°37' E 139°47'0 0.4
2017-Mar-20 08:33N 35°36' E 139°46'2 1.9
2017-Mar-20 07:33N 35°38' E 139°45'0 0.0
2017-Mar-20 06:33N 35°38' E 139°45'0 0.0
2017-Mar-20 05:33N 35°38' E 139°45'0 0.0
2017-Mar-20 04:33N 35°38' E 139°45'0 0.0
2017-Mar-20 03:33N 35°38' E 139°45'0 0.0
2017-Mar-20 02:33N 35°38' E 139°45'0 0.0
2017-Mar-20 01:33N 35°38' E 139°45'0 0.0
2017-Mar-20 00:33N 35°38' E 139°45'0 0.0
2017-Mar-19 23:33N 35°38' E 139°45'2 2.3
2017-Mar-19 22:33N 35°36' E 139°47'2 2.3
2017-Mar-19 21:33N 35°34' E 139°49'2 2.3
2017-Mar-19 20:34N 35°36' E 139°47'2 2.3
2017-Mar-19 19:33N 35°38' E 139°45'0 0.0
2017-Mar-19 18:33N 35°38' E 139°45'0 0.0
2017-Mar-19 17:33N 35°38' E 139°45'0 0.0
2017-Mar-19 16:33N 35°38' E 139°45'0 0.0
2017-Mar-19 15:33N 35°38' E 139°45'0 0.0
2017-Mar-19 14:33N 35°38' E 139°45'0 0.0
2017-Mar-19 13:33N 35°38' E 139°45'0 0.0
2017-Mar-19 12:33N 35°38' E 139°45'0 0.0
2017-Mar-19 11:33N 35°38' E 139°45'0 0.0
2017-Mar-19 10:33N 35°38' E 139°45'0 0.0
2017-Mar-19 09:32N 35°38' E 139°45'0 0.0
2017-Mar-19 08:33N 35°38' E 139°45'0 0.0
2017-Mar-19 07:33N 35°38' E 139°45'0 0.0
2017-Mar-19 06:33N 35°38' E 139°45'0 0.0
2017-Mar-19 05:33N 35°38' E 139°45'0 0.0
2017-Mar-19 04:33N 35°38' E 139°45'0 0.0
2017-Mar-19 03:33N 35°38' E 139°45'0 0.0
2017-Mar-19 02:33N 35°38' E 139°45'0 0.0
2017-Mar-19 01:33N 35°38' E 139°45'0 0.0
2017-Mar-19 00:33N 35°38' E 139°45'0 0.0
2017-Mar-18 23:33N 35°38' E 139°45'0 0.0
2017-Mar-18 22:33N 35°38' E 139°45'0 0.0
2017-Mar-18 21:33N 35°38' E 139°45'0 0.0
2017-Mar-18 20:33N 35°38' E 139°45'0 0.0
2017-Mar-18 19:33N 35°38' E 139°45'0 0.0
2017-Mar-18 18:33N 35°38' E 139°45'0 0.0
2017-Mar-18 17:33N 35°38' E 139°45'0 0.0
2017-Mar-18 16:33N 35°38' E 139°45'0 0.0
2017-Mar-18 15:33N 35°38' E 139°45'0 0.0
2017-Mar-18 14:34N 35°38' E 139°45'0 0.0
2017-Mar-18 13:33N 35°38' E 139°45'0 0.0
2017-Mar-18 12:33N 35°38' E 139°45'0 0.0
2017-Mar-18 11:33N 35°38' E 139°45'0 0.0
2017-Mar-18 10:33N 35°38' E 139°45'0 0.0
2017-Mar-18 09:33N 35°38' E 139°45'0 0.0
2017-Mar-18 08:33N 35°38' E 139°45'0 0.0
2017-Mar-18 07:33N 35°38' E 139°45'0 0.0
2017-Mar-18 06:33N 35°38' E 139°45'0 0.0
2017-Mar-18 05:33N 35°38' E 139°45'0 0.0
2017-Mar-18 04:33N 35°38' E 139°45'0 0.0
2017-Mar-18 03:33N 35°38' E 139°45'0 0.4
2017-Mar-18 02:32N 35°39' E 139°46'0 0.1
2017-Mar-18 01:18N 35°39' E 139°46'3 3.7
2017-Mar-18 00:28N 35°36' E 139°46'1 1.0
2017-Mar-17 23:32N 35°35' E 139°47'1 1.4
2017-Mar-17 22:33N 35°36' E 139°46'0 0.1
2017-Mar-17 21:33N 35°36' E 139°46'2 1.9
2017-Mar-17 20:33N 35°38' E 139°45'0 0.0
2017-Mar-17 19:33N 35°38' E 139°45'0 0.0
2017-Mar-17 18:33N 35°38' E 139°45'0 0.0
2017-Mar-17 17:33N 35°38' E 139°45'0 0.0
2017-Mar-17 16:33N 35°38' E 139°45'0 0.0
2017-Mar-17 15:33N 35°38' E 139°45'0 0.0
2017-Mar-17 14:33N 35°38' E 139°45'0 0.0
2017-Mar-17 13:32N 35°38' E 139°45'0 0.0
2017-Mar-17 12:33N 35°38' E 139°45'0 0.0
2017-Mar-17 11:33N 35°38' E 139°45'0 0.0
2017-Mar-17 10:33N 35°38' E 139°45'0 0.0
2017-Mar-17 05:21N 35°38' E 139°45'0 0.0
2017-Mar-17 04:33N 35°38' E 139°45'0 0.0
2017-Mar-17 03:33N 35°38' E 139°45'0 0.0
2017-Mar-17 02:33N 35°38' E 139°45'0 0.0
2017-Mar-17 01:08N 35°38' E 139°45'  
Track history (hours):
 
Tides and Currents Weather Stations Pressure Air Temp Water Temp Dewpoint Dewpoint Depression Visibility Wind Speed Wind Dir Waves Ship Positions

Ohyamamaru

Last reported at 2017-Mar-27 00:33 UTC. Time now 2017-Mar-27 00:40 UTC.
Position N 35°38' E 139°45'.

Length 36 m; draft 4.4 m.

Type: Tug. MMSI: 431001114.

Date/timePositionNaut miles runAvg speedWind from/ knotsBaromVisibWave heightAir tempDewpointWater temp
2017-Mar-27 00:33N 35°38' E 139°45'2 2.0
2017-Mar-26 23:33N 35°36' E 139°47'1 0.7
2017-Mar-26 22:33N 35°36' E 139°46'2 2.4
2017-Mar-26 21:33N 35°34' E 139°48'3 2.9
2017-Mar-26 20:33N 35°37' E 139°46'2 1.6
2017-Mar-26 19:33N 35°38' E 139°45'0 0.0
2017-Mar-26 18:33N 35°38' E 139°45'0 0.0
2017-Mar-26 17:33N 35°38' E 139°45'0 0.0
2017-Mar-26 16:33N 35°38' E 139°45'0 0.0
2017-Mar-26 15:33N 35°38' E 139°45'0 0.0
2017-Mar-26 14:33N 35°38' E 139°45'0 0.0
2017-Mar-26 13:34N 35°38' E 139°45'0 0.0
2017-Mar-26 12:33N 35°38' E 139°45'0 0.0
2017-Mar-26 11:33N 35°38' E 139°45'0 0.0
2017-Mar-26 10:33N 35°38' E 139°45'0 0.0
2017-Mar-26 09:33N 35°38' E 139°45'0 0.0
2017-Mar-26 08:33N 35°38' E 139°45'0 0.0
2017-Mar-26 07:33N 35°38' E 139°45'0 0.0
2017-Mar-26 06:33N 35°38' E 139°45'0 0.0
2017-Mar-26 05:33N 35°38' E 139°45'0 0.0
2017-Mar-26 04:33N 35°38' E 139°45'0 0.0
2017-Mar-26 03:33N 35°38' E 139°45'0 0.0
2017-Mar-26 02:32N 35°38' E 139°45'0 0.0
2017-Mar-26 01:33N 35°38' E 139°45'0 0.0
2017-Mar-26 00:33N 35°38' E 139°45'0 0.0
2017-Mar-25 23:33N 35°38' E 139°45'0 0.0
2017-Mar-25 22:33N 35°38' E 139°45'0 0.0
2017-Mar-25 21:33N 35°38' E 139°45'0 0.0
2017-Mar-25 20:33N 35°38' E 139°45'0 0.0
2017-Mar-25 19:33N 35°38' E 139°45'0 0.0
2017-Mar-25 18:33N 35°38' E 139°45'0 0.0
2017-Mar-25 17:33N 35°38' E 139°45'0 0.0
2017-Mar-25 16:34N 35°38' E 139°45'0 0.0
2017-Mar-25 15:33N 35°38' E 139°45'0 0.0
2017-Mar-25 14:33N 35°38' E 139°45'0 0.0
2017-Mar-25 13:33N 35°38' E 139°45'0 0.0
2017-Mar-25 12:33N 35°38' E 139°45'0 0.0
2017-Mar-25 11:33N 35°38' E 139°45'0 0.0
2017-Mar-25 10:33N 35°38' E 139°45'0 0.0
2017-Mar-25 09:33N 35°38' E 139°45'3 2.5
2017-Mar-25 08:33N 35°36' E 139°46'3 2.6
2017-Mar-25 07:33N 35°38' E 139°45'0 0.0
2017-Mar-25 06:33N 35°38' E 139°45'0 0.0
2017-Mar-25 05:33N 35°38' E 139°45'0 0.0
2017-Mar-25 04:33N 35°38' E 139°45'0 0.0
2017-Mar-25 03:33N 35°38' E 139°45'0 0.0
2017-Mar-25 02:33N 35°38' E 139°45'0 0.0
2017-Mar-25 01:33N 35°38' E 139°45'0 0.0
2017-Mar-25 00:33N 35°38' E 139°45'0 0.0
2017-Mar-24 23:33N 35°38' E 139°45'0 0.0
2017-Mar-24 22:33N 35°38' E 139°45'0 0.0
2017-Mar-24 21:32N 35°38' E 139°45'0 0.0
2017-Mar-24 20:34N 35°38' E 139°45'0 0.0
2017-Mar-24 19:33N 35°38' E 139°45'0 0.0
2017-Mar-24 18:33N 35°38' E 139°45'0 0.0
2017-Mar-24 17:33N 35°38' E 139°45'0 0.0
2017-Mar-24 16:33N 35°38' E 139°45'0 0.0
2017-Mar-24 15:33N 35°38' E 139°45'0 0.0
2017-Mar-24 14:33N 35°38' E 139°45'0 0.0
2017-Mar-24 13:33N 35°38' E 139°45'2 2.5
2017-Mar-24 12:33N 35°36' E 139°47'2 2.5
2017-Mar-24 11:33N 35°38' E 139°45'2 2.2
2017-Mar-24 10:33N 35°36' E 139°46'1 1.3
2017-Mar-24 09:33N 35°35' E 139°47'1 0.9
2017-Mar-24 08:33N 35°36' E 139°47'0 0.3
2017-Mar-24 07:33N 35°36' E 139°47'2 2.3
2017-Mar-24 06:33N 35°38' E 139°46'0 0.0
2017-Mar-24 05:32N 35°38' E 139°46'0 0.0
2017-Mar-24 04:33N 35°38' E 139°46'0 0.0
2017-Mar-24 03:33N 35°38' E 139°46'0 0.0
2017-Mar-24 02:33N 35°38' E 139°46'0 0.0
2017-Mar-24 01:33N 35°38' E 139°46'0 0.0
2017-Mar-24 00:33N 35°38' E 139°46'0 0.0
2017-Mar-23 23:33N 35°38' E 139°46'2 2.0
2017-Mar-23 22:33N 35°36' E 139°46'2 2.4
2017-Mar-23 21:33N 35°35' E 139°48'4 1.4
2017-Mar-23 18:31N 35°38' E 139°46'0 0.0
2017-Mar-23 11:32N 35°38' E 139°46'0 0.0
2017-Mar-23 10:19N 35°38' E 139°46'0 0.0
2017-Mar-23 09:19N 35°38' E 139°46'0 0.0
2017-Mar-23 08:31N 35°38' E 139°46'0 0.0
2017-Mar-23 07:33N 35°38' E 139°46'0 0.0
2017-Mar-23 06:33N 35°38' E 139°46'0 0.0
2017-Mar-23 05:32N 35°38' E 139°46'0 0.0
2017-Mar-23 04:32N 35°38' E 139°46'0 0.0
2017-Mar-23 03:32N 35°38' E 139°46'0 0.0
2017-Mar-23 02:32N 35°38' E 139°46'0 0.0
2017-Mar-23 01:33N 35°38' E 139°46'0 0.0
2017-Mar-23 00:33N 35°38' E 139°46'0 0.0
2017-Mar-22 23:31N 35°38' E 139°46'3 3.4
2017-Mar-22 22:33N 35°35' E 139°47'2 2.1
2017-Mar-22 21:32N 35°37' E 139°50'2 1.9
2017-Mar-22 20:33N 35°37' E 139°47'1 1.3
2017-Mar-22 19:33N 35°36' E 139°46'2 2.5
2017-Mar-22 18:33N 35°38' E 139°46'0 0.0
2017-Mar-22 17:34N 35°38' E 139°46'0 0.0
2017-Mar-22 16:33N 35°38' E 139°46'0 0.0
2017-Mar-22 15:33N 35°38' E 139°46'0 0.0
2017-Mar-22 14:33N 35°38' E 139°46'0 0.0
2017-Mar-22 13:30N 35°38' E 139°46'0 0.0
2017-Mar-22 12:33N 35°38' E 139°46'0 0.0
2017-Mar-22 11:32N 35°38' E 139°46'0 0.0
2017-Mar-22 10:31N 35°38' E 139°46'0 0.0
2017-Mar-22 09:33N 35°38' E 139°46'0 0.0
2017-Mar-22 08:32N 35°38' E 139°46'0 0.0
2017-Mar-22 07:30N 35°38' E 139°46'0 0.0
2017-Mar-22 06:11N 35°38' E 139°46'0 0.0
2017-Mar-22 05:30N 35°38' E 139°46'0 0.0
2017-Mar-22 04:23N 35°38' E 139°46'0 0.0
2017-Mar-22 03:33N 35°38' E 139°46'2 2.2
2017-Mar-22 02:32N 35°37' E 139°48'0 0.3
2017-Mar-22 01:33N 35°37' E 139°48'0 0.4
2017-Mar-22 00:33N 35°37' E 139°47'3 2.6
2017-Mar-21 23:33N 35°35' E 139°48'4 4.3
2017-Mar-21 22:33N 35°38' E 139°45'0 0.0
2017-Mar-21 21:33N 35°38' E 139°45'0 0.0
2017-Mar-21 20:33N 35°38' E 139°45'0 0.0
2017-Mar-21 19:33N 35°38' E 139°45'0 0.0
2017-Mar-21 18:33N 35°38' E 139°45'0 0.0
2017-Mar-21 17:33N 35°38' E 139°45'0 0.0
2017-Mar-21 16:33N 35°38' E 139°45'0 0.0
2017-Mar-21 15:33N 35°38' E 139°45'0 0.0
2017-Mar-21 14:33N 35°38' E 139°45'0 0.0
2017-Mar-21 13:34N 35°38' E 139°45'0 0.0
2017-Mar-21 12:33N 35°38' E 139°45'0 0.0
2017-Mar-21 11:33N 35°38' E 139°45'3 2.5
2017-Mar-21 10:33N 35°36' E 139°47'1 0.8
2017-Mar-21 09:33N 35°37' E 139°47'3 2.9
2017-Mar-21 08:32N 35°34' E 139°49'4 3.7
2017-Mar-21 07:33N 35°37' E 139°46'2 1.6
2017-Mar-21 06:33N 35°38' E 139°45'0 0.0
2017-Mar-21 05:33N 35°38' E 139°45'0 0.0
2017-Mar-21 04:33N 35°38' E 139°45'0 0.0
2017-Mar-21 03:33N 35°38' E 139°45'0 0.0
2017-Mar-21 02:33N 35°38' E 139°45'0 0.0
2017-Mar-21 01:33N 35°38' E 139°45'0 0.0
2017-Mar-21 00:33N 35°38' E 139°45'0 0.0
2017-Mar-20 23:33N 35°38' E 139°45'3 2.6
2017-Mar-20 22:33N 35°36' E 139°47'2 2.1
2017-Mar-20 21:33N 35°38' E 139°46'1 0.5
2017-Mar-20 20:33N 35°38' E 139°45'0 0.0
2017-Mar-20 19:33N 35°38' E 139°45'0 0.0
2017-Mar-20 18:33N 35°38' E 139°45'0 0.0
2017-Mar-20 17:33N 35°38' E 139°45'0 0.0
2017-Mar-20 16:33N 35°38' E 139°45'0 0.0
2017-Mar-20 15:33N 35°38' E 139°45'0 0.0
2017-Mar-20 14:33N 35°38' E 139°45'0 0.0
2017-Mar-20 13:33N 35°38' E 139°45'0 0.0
2017-Mar-20 12:33N 35°38' E 139°45'0 0.0
2017-Mar-20 11:33N 35°38' E 139°45'0 0.0
2017-Mar-20 10:33N 35°38' E 139°45'2 1.9
2017-Mar-20 09:33N 35°37' E 139°47'0 0.4
2017-Mar-20 08:33N 35°36' E 139°46'2 1.9
2017-Mar-20 07:33N 35°38' E 139°45'0 0.0
2017-Mar-20 06:33N 35°38' E 139°45'0 0.0
2017-Mar-20 05:33N 35°38' E 139°45'0 0.0
2017-Mar-20 04:33N 35°38' E 139°45'0 0.0
2017-Mar-20 03:33N 35°38' E 139°45'0 0.0
2017-Mar-20 02:33N 35°38' E 139°45'0 0.0
2017-Mar-20 01:33N 35°38' E 139°45'0 0.0
2017-Mar-20 00:33N 35°38' E 139°45'0 0.0
2017-Mar-19 23:33N 35°38' E 139°45'2 2.3
2017-Mar-19 22:33N 35°36' E 139°47'2 2.3
2017-Mar-19 21:33N 35°34' E 139°49'2 2.3
2017-Mar-19 20:34N 35°36' E 139°47'2 2.3
2017-Mar-19 19:33N 35°38' E 139°45'0 0.0
2017-Mar-19 18:33N 35°38' E 139°45'0 0.0
2017-Mar-19 17:33N 35°38' E 139°45'0 0.0
2017-Mar-19 16:33N 35°38' E 139°45'0 0.0
2017-Mar-19 15:33N 35°38' E 139°45'0 0.0
2017-Mar-19 14:33N 35°38' E 139°45'0 0.0
2017-Mar-19 13:33N 35°38' E 139°45'0 0.0
2017-Mar-19 12:33N 35°38' E 139°45'0 0.0
2017-Mar-19 11:33N 35°38' E 139°45'0 0.0
2017-Mar-19 10:33N 35°38' E 139°45'0 0.0
2017-Mar-19 09:32N 35°38' E 139°45'0 0.0
2017-Mar-19 08:33N 35°38' E 139°45'0 0.0
2017-Mar-19 07:33N 35°38' E 139°45'0 0.0
2017-Mar-19 06:33N 35°38' E 139°45'0 0.0
2017-Mar-19 05:33N 35°38' E 139°45'0 0.0
2017-Mar-19 04:33N 35°38' E 139°45'0 0.0
2017-Mar-19 03:33N 35°38' E 139°45'0 0.0
2017-Mar-19 02:33N 35°38' E 139°45'0 0.0
2017-Mar-19 01:33N 35°38' E 139°45'0 0.0
2017-Mar-19 00:33N 35°38' E 139°45'0 0.0
2017-Mar-18 23:33N 35°38' E 139°45'0 0.0
2017-Mar-18 22:33N 35°38' E 139°45'0 0.0
2017-Mar-18 21:33N 35°38' E 139°45'0 0.0
2017-Mar-18 20:33N 35°38' E 139°45'0 0.0
2017-Mar-18 19:33N 35°38' E 139°45'0 0.0
2017-Mar-18 18:33N 35°38' E 139°45'0 0.0
2017-Mar-18 17:33N 35°38' E 139°45'0 0.0
2017-Mar-18 16:33N 35°38' E 139°45'0 0.0
2017-Mar-18 15:33N 35°38' E 139°45'0 0.0
2017-Mar-18 14:34N 35°38' E 139°45'0 0.0
2017-Mar-18 13:33N 35°38' E 139°45'0 0.0
2017-Mar-18 12:33N 35°38' E 139°45'0 0.0
2017-Mar-18 11:33N 35°38' E 139°45'0 0.0
2017-Mar-18 10:33N 35°38' E 139°45'0 0.0
2017-Mar-18 09:33N 35°38' E 139°45'0 0.0
2017-Mar-18 08:33N 35°38' E 139°45'0 0.0
2017-Mar-18 07:33N 35°38' E 139°45'0 0.0
2017-Mar-18 06:33N 35°38' E 139°45'0 0.0
2017-Mar-18 05:33N 35°38' E 139°45'0 0.0
2017-Mar-18 04:33N 35°38' E 139°45'0 0.0
2017-Mar-18 03:33N 35°38' E 139°45'0 0.4
2017-Mar-18 02:32N 35°39' E 139°46'0 0.1
2017-Mar-18 01:18N 35°39' E 139°46'3 3.7
2017-Mar-18 00:28N 35°36' E 139°46'1 1.0
2017-Mar-17 23:32N 35°35' E 139°47'1 1.4
2017-Mar-17 22:33N 35°36' E 139°46'0 0.1
2017-Mar-17 21:33N 35°36' E 139°46'2 1.9
2017-Mar-17 20:33N 35°38' E 139°45'0 0.0
2017-Mar-17 19:33N 35°38' E 139°45'0 0.0
2017-Mar-17 18:33N 35°38' E 139°45'0 0.0
2017-Mar-17 17:33N 35°38' E 139°45'0 0.0
2017-Mar-17 16:33N 35°38' E 139°45'0 0.0
2017-Mar-17 15:33N 35°38' E 139°45'0 0.0
2017-Mar-17 14:33N 35°38' E 139°45'0 0.0
2017-Mar-17 13:32N 35°38' E 139°45'0 0.0
2017-Mar-17 12:33N 35°38' E 139°45'0 0.0
2017-Mar-17 11:33N 35°38' E 139°45'0 0.0
2017-Mar-17 10:33N 35°38' E 139°45'0 0.0
2017-Mar-17 05:21N 35°38' E 139°45'0 0.0
2017-Mar-17 04:33N 35°38' E 139°45'0 0.0
2017-Mar-17 03:33N 35°38' E 139°45'0 0.0
2017-Mar-17 02:33N 35°38' E 139°45'0 0.0
2017-Mar-17 01:08N 35°38' E 139°45'  

Dump ship's entire track history